createdAt,value
2022-10-28T00:00:56.450Z,36.37
2022-10-28T00:02:29.532Z,34.77
2022-10-28T00:04:01.920Z,33.90
2022-10-28T00:05:35.326Z,34.77
2022-10-28T00:07:08.364Z,33.40
2022-10-28T00:08:42.956Z,35.20
2022-10-28T00:10:16.124Z,33.20
2022-10-28T00:11:49.175Z,33.07
2022-10-28T00:13:21.236Z,33.73
2022-10-28T00:14:54.252Z,37.83
2022-10-28T00:16:29.023Z,32.40
2022-10-28T00:18:01.153Z,31.73
2022-10-28T00:19:34.178Z,32.67
2022-10-28T00:21:08.717Z,35.47
2022-10-28T00:22:41.742Z,31.77
2022-10-28T00:24:16.181Z,32.93
2022-10-28T00:25:49.204Z,35.63
2022-10-28T00:27:22.255Z,35.77
2022-10-28T00:28:59.006Z,33.40
2022-10-28T00:30:32.047Z,40.47
2022-10-28T00:32:05.337Z,35.27
2022-10-28T00:33:38.558Z,31.00
2022-10-28T00:35:11.630Z,30.47
2022-10-28T00:36:46.577Z,35.60
2022-10-28T00:38:18.649Z,35.37
2022-10-28T00:39:53.041Z,34.77
2022-10-28T00:41:28.694Z,35.57
2022-10-28T00:43:01.831Z,36.13
2022-10-28T00:44:57.962Z,37.53
2022-10-28T00:46:38.068Z,34.70
2022-10-28T00:48:11.118Z,36.17
2022-10-28T00:49:46.724Z,39.57
2022-10-28T00:51:23.908Z,36.63
2022-10-28T00:53:00.538Z,35.03
2022-10-28T00:54:34.584Z,35.80
2022-10-28T00:56:11.138Z,37.47
2022-10-28T00:57:46.040Z,35.77
2022-10-28T00:59:23.972Z,36.10
2022-10-28T01:00:57.330Z,35.77
2022-10-28T01:02:30.678Z,32.50
2022-10-28T01:04:04.119Z,35.27
2022-10-28T01:05:40.789Z,32.97
2022-10-28T01:07:13.465Z,33.10
2022-10-28T01:08:46.468Z,33.07
2022-10-28T01:10:20.099Z,30.13
2022-10-28T01:12:01.716Z,33.20
2022-10-28T01:13:45.264Z,33.57
2022-10-28T01:15:29.846Z,29.63
2022-10-28T01:17:25.074Z,31.77
2022-10-28T01:19:14.021Z,34.47
2022-10-28T01:21:15.868Z,33.80
2022-10-28T01:22:55.190Z,35.83
2022-10-28T01:24:53.143Z,33.87
2022-10-28T01:26:57.432Z,32.30
2022-10-28T01:29:06.193Z,30.53
2022-10-28T01:31:12.055Z,32.20
2022-10-28T01:32:56.798Z,34.03
2022-10-28T01:34:34.200Z,35.87
2022-10-28T01:36:15.612Z,31.87
2022-10-28T01:37:55.509Z,35.10
2022-10-28T01:39:33.853Z,33.67
2022-10-28T01:41:12.426Z,35.17
2022-10-28T01:42:49.825Z,34.80
2022-10-28T01:44:28.976Z,31.87
2022-10-28T01:46:05.074Z,29.47
2022-10-28T01:47:46.127Z,33.00
2022-10-28T01:49:23.830Z,35.17
2022-10-28T01:51:02.063Z,32.47
2022-10-28T01:52:35.749Z,37.90
2022-10-28T01:54:09.982Z,38.67
2022-10-28T01:55:47.056Z,34.73
2022-10-28T01:57:20.346Z,36.27
2022-10-28T01:58:56.660Z,31.90
2022-10-28T02:00:32.749Z,33.67
2022-10-28T02:02:05.833Z,35.40
2022-10-28T02:03:40.491Z,31.70
2022-10-28T02:05:40.078Z,35.33
2022-10-28T02:07:13.149Z,33.70
2022-10-28T02:09:04.861Z,37.33
2022-10-28T02:10:44.976Z,37.07
2022-10-28T02:12:24.798Z,30.87
2022-10-28T02:14:08.491Z,37.77
2022-10-28T02:15:47.835Z,36.70
2022-10-28T02:17:27.872Z,37.33
2022-10-28T02:19:09.916Z,36.33
2022-10-28T02:20:52.310Z,35.17
2022-10-28T02:22:30.575Z,34.37
2022-10-28T02:24:11.829Z,35.87
2022-10-28T02:25:47.568Z,35.83
2022-10-28T02:27:30.337Z,32.70
2022-10-28T02:29:07.424Z,34.77
2022-10-28T02:30:47.317Z,37.63
2022-10-28T02:32:26.007Z,33.33
2022-10-28T02:34:05.540Z,35.27
2022-10-28T02:35:45.037Z,35.57
2022-10-28T02:37:24.855Z,34.93
2022-10-28T02:39:00.538Z,33.30
2022-10-28T02:40:34.174Z,37.43
2022-10-28T02:42:10.886Z,35.47
2022-10-28T02:43:46.819Z,33.63
2022-10-28T02:45:23.847Z,37.73
2022-10-28T02:47:00.589Z,37.00
2022-10-28T02:48:38.123Z,37.57
2022-10-28T02:50:17.301Z,37.03
2022-10-28T02:51:55.357Z,35.47
2022-10-28T02:53:32.342Z,34.77
2022-10-28T02:55:06.860Z,37.03
2022-10-28T02:56:43.465Z,38.23
2022-10-28T02:58:16.587Z,37.63
2022-10-28T02:59:54.083Z,35.80
2022-10-28T03:01:27.313Z,37.40
2022-10-28T03:03:00.566Z,37.03
2022-10-28T03:04:33.750Z,37.67
2022-10-28T03:06:07.305Z,38.60
2022-10-28T03:07:40.385Z,37.83
2022-10-28T03:09:12.430Z,43.17
2022-10-28T03:10:45.453Z,42.50
2022-10-28T03:12:18.557Z,40.13
2022-10-28T03:13:51.588Z,41.47
2022-10-28T03:15:24.640Z,40.40
2022-10-28T03:16:57.697Z,38.60
2022-10-28T03:18:30.723Z,39.63
2022-10-28T03:20:02.838Z,37.57
2022-10-28T03:21:37.280Z,39.57
2022-10-28T03:23:10.356Z,41.70
2022-10-28T03:24:43.456Z,41.63
2022-10-28T03:26:16.493Z,39.30
2022-10-28T03:27:49.530Z,40.10
2022-10-28T03:29:22.555Z,38.97
2022-10-28T03:30:55.607Z,37.83
2022-10-28T03:32:28.640Z,40.33
2022-10-28T03:34:00.737Z,37.53
2022-10-28T03:35:33.784Z,42.97
2022-10-28T03:37:08.187Z,38.80
2022-10-28T03:38:40.278Z,39.70
2022-10-28T03:40:14.129Z,40.33
2022-10-28T03:41:47.234Z,41.47
2022-10-28T03:43:20.295Z,43.50
2022-10-28T03:44:52.337Z,46.27
2022-10-28T03:46:25.490Z,42.60
2022-10-28T03:47:58.522Z,42.33
2022-10-28T03:49:30.598Z,44.77
2022-10-28T03:51:03.704Z,43.97
2022-10-28T03:52:37.108Z,45.87
2022-10-28T03:54:10.179Z,41.83
2022-10-28T03:55:42.240Z,43.70
2022-10-28T03:57:15.265Z,47.17
2022-10-28T03:58:48.941Z,43.17
2022-10-28T04:00:22.212Z,46.37
2022-10-28T04:01:55.441Z,45.43
2022-10-28T04:03:28.591Z,43.47
2022-10-28T04:05:01.623Z,46.07
2022-10-28T04:06:34.712Z,48.77
2022-10-28T04:08:09.155Z,44.17
2022-10-28T04:09:42.852Z,45.33
2022-10-28T04:11:16.005Z,48.10
2022-10-28T04:12:48.058Z,52.33
2022-10-28T04:14:21.078Z,43.63
2022-10-28T04:15:54.135Z,48.17
2022-10-28T04:17:26.191Z,47.77
2022-10-28T04:18:59.319Z,48.17
2022-10-28T04:20:32.623Z,46.57
2022-10-28T04:22:05.744Z,47.60
2022-10-28T04:23:40.161Z,47.20
2022-10-28T04:25:13.285Z,48.93
2022-10-28T04:26:46.287Z,48.57
2022-10-28T04:28:19.360Z,48.97
2022-10-28T04:29:52.388Z,45.53
2022-10-28T04:31:25.485Z,43.37
2022-10-28T04:32:58.541Z,47.60
2022-10-28T04:34:31.743Z,49.40
2022-10-28T04:36:05.029Z,46.17
2022-10-28T04:37:38.509Z,45.17
2022-10-28T04:39:12.962Z,47.97
2022-10-28T04:40:48.364Z,46.63
2022-10-28T04:42:21.372Z,46.03
2022-10-28T04:43:56.023Z,48.63
2022-10-28T04:45:29.062Z,45.87
2022-10-28T04:47:02.124Z,44.73
2022-10-28T04:48:35.339Z,44.13
2022-10-28T04:50:08.269Z,48.57
2022-10-28T04:51:41.369Z,49.23
2022-10-28T04:53:14.788Z,49.10
2022-10-28T04:54:49.195Z,47.03
2022-10-28T04:56:22.338Z,48.90
2022-10-28T04:57:56.242Z,47.77
2022-10-28T04:59:29.384Z,48.00
2022-10-28T05:01:06.805Z,48.63
2022-10-28T05:02:41.483Z,45.40
2022-10-28T05:04:18.130Z,50.70
2022-10-28T05:05:51.152Z,46.77
2022-10-28T05:07:24.216Z,50.00
2022-10-28T05:08:57.527Z,45.37
2022-10-28T05:10:31.946Z,47.60
2022-10-28T05:12:05.298Z,49.40
2022-10-28T05:13:37.373Z,44.37
2022-10-28T05:15:11.938Z,49.13
2022-10-28T05:16:44.976Z,45.57
2022-10-28T05:18:18.144Z,45.17
2022-10-28T05:19:51.191Z,41.67
2022-10-28T05:21:24.289Z,44.97
2022-10-28T05:22:57.762Z,42.60
2022-10-28T05:24:31.036Z,45.37
2022-10-28T05:26:05.632Z,41.23
2022-10-28T05:27:38.649Z,43.47
2022-10-28T05:29:11.699Z,43.73
2022-10-28T05:30:45.026Z,42.47
2022-10-28T05:32:18.065Z,39.57
2022-10-28T05:33:51.100Z,41.87
2022-10-28T05:35:24.149Z,46.90
2022-10-28T05:36:57.177Z,42.87
2022-10-28T05:38:30.224Z,46.23
2022-10-28T05:40:03.329Z,46.00
2022-10-28T05:41:38.886Z,44.90
2022-10-28T05:43:12.281Z,39.83
2022-10-28T05:44:45.307Z,41.90
2022-10-28T05:46:18.381Z,43.87
2022-10-28T05:47:51.524Z,43.20
2022-10-28T05:49:24.766Z,45.40
2022-10-28T05:50:57.868Z,44.17
2022-10-28T05:52:30.933Z,42.97
2022-10-28T05:54:03.955Z,43.33
2022-10-28T05:55:37.071Z,40.53
2022-10-28T05:57:10.496Z,43.00
2022-10-28T05:58:43.576Z,40.77
2022-10-28T06:00:18.290Z,40.60
2022-10-28T06:01:51.401Z,40.87
2022-10-28T06:03:28.625Z,39.47
2022-10-28T06:05:04.364Z,36.47
2022-10-28T06:06:37.551Z,37.37
2022-10-28T06:08:12.293Z,38.80
2022-10-28T06:09:45.361Z,36.87
2022-10-28T06:11:16.906Z,41.63
2022-10-28T06:12:51.598Z,33.70
2022-10-28T06:14:24.919Z,33.60
2022-10-28T06:15:58.026Z,36.47
2022-10-28T06:17:30.241Z,33.40
2022-10-28T06:19:03.350Z,34.07
2022-10-28T06:20:36.402Z,32.07
2022-10-28T06:22:09.639Z,33.27
2022-10-28T06:23:42.673Z,32.23
2022-10-28T06:25:16.104Z,34.20
2022-10-28T06:26:49.337Z,32.53
2022-10-28T06:28:23.996Z,35.17
2022-10-28T06:29:57.027Z,34.77
2022-10-28T06:31:30.072Z,33.77
2022-10-28T06:33:03.174Z,31.73
2022-10-28T06:34:37.620Z,30.53
2022-10-28T06:36:10.682Z,33.10
2022-10-28T06:37:43.819Z,29.60
2022-10-28T06:39:16.983Z,32.63
2022-10-28T06:40:52.394Z,31.17
2022-10-28T06:42:25.911Z,28.93
2022-10-28T06:44:00.449Z,29.07
2022-10-28T06:45:34.527Z,32.73
2022-10-28T06:47:09.168Z,30.63
2022-10-28T06:48:42.283Z,29.70
2022-10-28T06:50:15.447Z,28.93
2022-10-28T06:51:49.852Z,28.20
2022-10-28T06:53:23.276Z,28.93
2022-10-28T06:54:56.342Z,30.87
2022-10-28T06:56:29.467Z,28.10
2022-10-28T06:58:03.660Z,25.83
2022-10-28T06:59:38.458Z,28.77
2022-10-28T07:01:11.946Z,26.50
2022-10-28T07:02:45.399Z,24.80
2022-10-28T07:04:18.583Z,27.70
2022-10-28T07:05:51.902Z,27.43
2022-10-28T07:07:24.994Z,25.20
2022-10-28T07:08:58.098Z,25.03
2022-10-28T07:10:31.303Z,24.27
2022-10-28T07:12:05.596Z,23.97
2022-10-28T07:13:38.824Z,22.77
2022-10-28T07:15:13.922Z,21.33
2022-10-28T07:16:47.131Z,23.67
2022-10-28T07:18:20.504Z,20.67
2022-10-28T07:19:53.553Z,20.03
2022-10-28T07:21:28.517Z,20.07
2022-10-28T07:23:02.702Z,22.23
2022-10-28T07:24:35.737Z,18.27
2022-10-28T07:26:08.775Z,18.83
2022-10-28T07:27:41.831Z,19.50
2022-10-28T07:29:14.949Z,17.57
2022-10-28T07:30:49.385Z,18.53
2022-10-28T07:32:22.419Z,19.97
2022-10-28T07:33:55.720Z,19.80
2022-10-28T07:35:29.193Z,18.37
2022-10-28T07:37:02.450Z,17.73
2022-10-28T07:38:35.928Z,21.30
2022-10-28T07:40:09.804Z,18.83
2022-10-28T07:41:42.842Z,18.30
2022-10-28T07:43:15.930Z,17.77
2022-10-28T07:44:48.955Z,19.60
2022-10-28T07:46:23.399Z,18.10
2022-10-28T07:47:56.422Z,16.33
2022-10-28T07:49:29.557Z,15.67
2022-10-28T07:51:03.191Z,18.33
2022-10-28T07:52:37.048Z,17.57
2022-10-28T07:54:10.223Z,16.60
2022-10-28T07:55:43.236Z,16.70
2022-10-28T07:57:16.332Z,17.90
2022-10-28T07:58:49.734Z,16.17
2022-10-28T08:00:22.972Z,14.57
2022-10-28T08:01:57.494Z,14.03
2022-10-28T08:03:34.699Z,17.33
2022-10-28T08:05:11.360Z,16.23
2022-10-28T08:06:44.459Z,15.43
2022-10-28T08:08:17.599Z,14.07
2022-10-28T08:09:50.666Z,15.50
2022-10-28T08:11:24.787Z,13.57
2022-10-28T08:12:58.921Z,14.30
2022-10-28T08:14:31.947Z,17.47
2022-10-28T08:16:05.395Z,13.60
2022-10-28T08:17:40.083Z,14.80
2022-10-28T08:19:13.207Z,13.70
2022-10-28T08:20:46.245Z,13.30
2022-10-28T08:22:19.272Z,14.77
2022-10-28T08:23:52.704Z,13.73
2022-10-28T08:25:25.822Z,13.70
2022-10-28T08:26:58.947Z,12.20
2022-10-28T08:28:32.333Z,12.13
2022-10-28T08:30:06.231Z,12.80
2022-10-28T08:31:39.433Z,12.63
2022-10-28T08:33:14.122Z,13.13
2022-10-28T08:34:47.167Z,12.20
2022-10-28T08:36:20.236Z,14.07
2022-10-28T08:37:53.637Z,13.03
2022-10-28T08:39:26.849Z,13.80
2022-10-28T08:41:08.833Z,11.93
2022-10-28T08:42:48.806Z,13.83
2022-10-28T08:44:57.900Z,14.73
2022-10-28T08:46:50.506Z,12.80
2022-10-28T08:48:32.339Z,12.87
2022-10-28T08:50:13.473Z,12.43
2022-10-28T08:51:53.833Z,15.20
2022-10-28T08:53:30.050Z,13.57
2022-10-28T08:55:07.764Z,13.90
2022-10-28T08:56:45.953Z,13.10
2022-10-28T08:58:23.640Z,13.80
2022-10-28T08:59:56.987Z,12.40
2022-10-28T09:01:38.721Z,12.53
2022-10-28T09:03:22.315Z,13.40
2022-10-28T09:05:03.413Z,15.83
2022-10-28T09:06:36.448Z,14.63
2022-10-28T09:08:22.479Z,14.60
2022-10-28T09:09:56.830Z,12.93
2022-10-28T09:11:55.239Z,13.00
2022-10-28T09:13:34.601Z,12.67
2022-10-28T09:15:21.008Z,10.90
2022-10-28T09:17:05.179Z,13.83
2022-10-28T09:18:52.829Z,13.87
2022-10-28T09:20:40.594Z,12.83
2022-10-28T09:22:23.830Z,13.77
2022-10-28T09:23:58.630Z,14.13
2022-10-28T09:25:40.295Z,12.93
2022-10-28T09:27:24.002Z,13.93
2022-10-28T09:30:50.389Z,11.73
2022-10-28T09:32:34.861Z,13.13
2022-10-28T09:34:18.962Z,12.87
2022-10-28T09:35:54.138Z,11.23
2022-10-28T09:37:32.194Z,14.43
2022-10-28T09:39:08.240Z,15.17
2022-10-28T09:40:45.116Z,13.63
2022-10-28T09:42:23.284Z,13.33
2022-10-28T09:44:00.339Z,11.70
2022-10-28T09:45:37.077Z,13.03
2022-10-28T09:47:17.405Z,12.03
2022-10-28T09:48:52.878Z,16.17
2022-10-28T09:50:30.869Z,11.47
2022-10-28T09:52:15.342Z,10.93
2022-10-28T09:53:54.418Z,13.97
2022-10-28T09:55:27.591Z,12.83
2022-10-28T09:57:00.881Z,13.23
2022-10-28T09:58:35.019Z,11.93
2022-10-28T10:00:12.896Z,11.73
2022-10-28T10:01:47.788Z,10.93
2022-10-28T10:03:20.938Z,11.70
2022-10-28T10:04:54.129Z,11.53
2022-10-28T10:06:30.774Z,12.30
2022-10-28T10:08:06.852Z,11.27
2022-10-28T10:09:40.819Z,13.07
2022-10-28T10:11:25.439Z,11.53
2022-10-28T10:13:01.069Z,12.03
2022-10-28T10:14:40.594Z,12.93
2022-10-28T10:16:19.731Z,15.30
2022-10-28T10:17:53.882Z,12.33
2022-10-28T10:19:27.040Z,11.67
2022-10-28T10:21:00.954Z,14.70
2022-10-28T10:22:36.270Z,12.70
2022-10-28T10:24:25.188Z,13.50
2022-10-28T10:26:06.755Z,14.33
2022-10-28T10:27:42.718Z,14.03
2022-10-28T10:29:15.838Z,12.50
2022-10-28T10:30:52.495Z,14.00
2022-10-28T10:32:28.129Z,13.13
2022-10-28T10:34:01.213Z,12.43
2022-10-28T10:35:37.801Z,13.43
2022-10-28T10:37:20.594Z,14.50
2022-10-28T10:38:55.996Z,14.13
2022-10-28T10:40:32.226Z,14.43
2022-10-28T10:42:17.377Z,14.07
2022-10-28T10:43:50.447Z,11.77
2022-10-28T10:45:26.104Z,13.13
2022-10-28T10:47:22.663Z,14.20
2022-10-28T10:49:12.800Z,15.23
2022-10-28T10:50:47.907Z,13.90
2022-10-28T10:52:25.869Z,13.93
2022-10-28T10:54:00.791Z,13.67
2022-10-28T10:55:41.238Z,13.50
2022-10-28T10:57:20.275Z,12.53
2022-10-28T10:58:56.027Z,14.97
2022-10-28T11:00:33.780Z,14.50
2022-10-28T11:02:23.437Z,13.40
2022-10-28T11:04:00.416Z,14.90
2022-10-28T11:05:38.075Z,15.87
2022-10-28T11:07:16.658Z,17.10
2022-10-28T11:08:49.962Z,14.63
2022-10-28T11:10:25.242Z,11.63
2022-10-28T11:12:00.268Z,13.93
2022-10-28T11:13:34.637Z,13.23
2022-10-28T11:15:23.158Z,14.87
2022-10-28T11:16:58.033Z,13.47
2022-10-28T11:18:41.575Z,14.53
2022-10-28T11:20:25.422Z,14.60
2022-10-28T11:22:12.676Z,13.23
2022-10-28T11:23:54.688Z,13.17
2022-10-28T11:25:37.183Z,12.23
2022-10-28T11:27:22.533Z,12.33
2022-10-28T11:29:09.953Z,15.10
2022-10-28T11:30:53.974Z,14.93
2022-10-28T11:32:44.098Z,13.33
2022-10-28T11:34:47.250Z,15.80
2022-10-28T11:36:26.457Z,16.60
2022-10-28T11:38:13.041Z,12.53
2022-10-28T11:39:57.951Z,13.67
2022-10-28T11:41:41.392Z,15.57
2022-10-28T11:43:25.982Z,12.87
2022-10-28T11:45:05.904Z,13.60
2022-10-28T11:46:47.425Z,13.40
2022-10-28T11:48:31.290Z,14.30
2022-10-28T11:50:15.808Z,13.30
2022-10-28T11:51:57.404Z,13.90
2022-10-28T11:53:58.040Z,14.63
2022-10-28T11:55:37.030Z,13.53
2022-10-28T11:57:14.339Z,14.53
2022-10-28T11:59:01.718Z,15.50
2022-10-28T12:00:57.896Z,15.70
2022-10-28T12:02:50.718Z,16.10
2022-10-28T12:04:46.127Z,13.63
2022-10-28T12:06:26.171Z,14.33
2022-10-28T12:08:26.970Z,15.40
2022-10-28T12:10:15.922Z,14.90
2022-10-28T12:12:02.021Z,15.63
2022-10-28T12:13:44.140Z,15.97
2022-10-28T12:15:26.172Z,14.07
2022-10-28T12:17:06.531Z,13.33
2022-10-28T12:18:48.430Z,16.50
2022-10-28T12:20:25.300Z,14.80
2022-10-28T12:22:05.787Z,12.50
2022-10-28T12:23:41.453Z,13.50
2022-10-28T12:25:19.203Z,14.57
2022-10-28T12:26:56.390Z,16.00
2022-10-28T12:28:32.358Z,14.37
2022-10-28T12:30:16.473Z,13.13
2022-10-28T12:31:56.940Z,12.63
2022-10-28T12:33:36.046Z,12.50
2022-10-28T12:35:16.589Z,13.17
2022-10-28T12:36:55.404Z,15.53
2022-10-28T12:38:35.597Z,13.27
2022-10-28T12:40:15.219Z,14.17
2022-10-28T12:41:56.529Z,12.77
2022-10-28T12:43:35.542Z,13.40
2022-10-28T12:45:14.929Z,13.00
2022-10-28T12:46:57.148Z,12.20
2022-10-28T12:48:34.921Z,13.53
2022-10-28T12:50:19.330Z,14.40
2022-10-28T12:51:52.940Z,13.00
2022-10-28T12:53:35.499Z,15.47
2022-10-28T12:55:26.852Z,15.47
2022-10-28T12:57:05.899Z,14.93
2022-10-28T12:58:48.092Z,14.87
2022-10-28T13:00:26.309Z,13.97
2022-10-28T13:02:02.205Z,12.60
2022-10-28T13:03:37.423Z,13.87
2022-10-28T13:05:19.725Z,13.90
2022-10-28T13:07:27.165Z,13.57
2022-10-28T13:09:33.221Z,14.00
2022-10-28T13:11:40.811Z,12.20
2022-10-28T13:13:34.163Z,15.97
2022-10-28T13:15:31.432Z,13.97
2022-10-28T13:17:25.244Z,14.90
2022-10-28T13:19:43.599Z,15.13
2022-10-28T13:21:29.151Z,14.90
2022-10-28T13:23:11.645Z,14.33
2022-10-28T13:24:53.852Z,15.70
2022-10-28T13:26:29.635Z,13.57
2022-10-28T13:28:03.297Z,14.50
2022-10-28T13:29:37.443Z,16.23
2022-10-28T13:31:10.872Z,13.10
2022-10-28T13:32:45.788Z,14.53
2022-10-28T13:34:21.758Z,12.80
2022-10-28T13:35:56.227Z,12.53
2022-10-28T13:37:35.558Z,16.60
2022-10-28T13:39:26.120Z,15.70
2022-10-28T13:41:34.775Z,14.23
2022-10-28T13:43:20.034Z,15.00
2022-10-28T13:44:54.011Z,14.67
2022-10-28T13:47:15.765Z,12.33
2022-10-28T13:48:50.630Z,15.33
2022-10-28T13:50:35.392Z,15.53
2022-10-28T13:52:21.392Z,12.67
2022-10-28T13:53:57.621Z,13.83
2022-10-28T13:55:44.970Z,14.87
2022-10-28T13:57:26.168Z,12.93
2022-10-28T13:59:02.188Z,14.60
2022-10-28T14:00:38.335Z,16.40
2022-10-28T14:02:35.061Z,11.70
2022-10-28T14:04:24.299Z,13.40
2022-10-28T14:05:59.329Z,14.07
2022-10-28T14:07:34.955Z,16.13
2022-10-28T14:09:21.692Z,16.70
2022-10-28T14:11:03.072Z,15.17
2022-10-28T14:12:43.315Z,15.07
2022-10-28T14:14:18.211Z,14.93
2022-10-28T14:16:13.394Z,15.50
2022-10-28T14:17:51.553Z,14.27
2022-10-28T14:19:26.208Z,16.57
2022-10-28T14:21:01.607Z,17.10
2022-10-28T14:22:36.963Z,15.07
2022-10-28T14:24:13.051Z,17.07
2022-10-28T14:26:04.330Z,15.20
2022-10-28T14:27:44.328Z,16.73
2022-10-28T14:29:28.512Z,15.73
2022-10-28T14:31:38.981Z,18.27
2022-10-28T14:33:23.084Z,16.27
2022-10-28T14:34:59.818Z,14.27
2022-10-28T14:36:44.209Z,17.70
2022-10-28T14:39:12.039Z,16.77
2022-10-28T14:40:50.827Z,17.63
2022-10-28T14:44:52.193Z,18.10
2022-10-28T14:46:33.986Z,16.73
2022-10-28T14:48:48.747Z,17.73
2022-10-28T14:50:25.730Z,18.93
2022-10-28T14:52:04.336Z,17.87
2022-10-28T14:53:38.413Z,19.20
2022-10-28T14:55:22.450Z,18.63
2022-10-28T14:56:57.148Z,18.47
2022-10-28T14:58:36.209Z,18.53
2022-10-28T15:00:18.465Z,18.00
2022-10-28T15:02:00.929Z,19.30
2022-10-28T15:03:34.509Z,19.50
2022-10-28T15:05:18.242Z,19.27
2022-10-28T15:06:53.242Z,18.13
2022-10-28T15:08:26.341Z,18.20
2022-10-28T15:10:00.277Z,21.23
2022-10-28T15:11:33.476Z,20.27
2022-10-28T15:13:06.558Z,21.50
2022-10-28T15:14:41.135Z,19.43
2022-10-28T15:16:20.807Z,22.67
2022-10-28T15:17:54.670Z,18.33
2022-10-28T15:19:29.068Z,21.10
2022-10-28T15:21:09.230Z,19.40
2022-10-28T15:22:44.467Z,20.77
2022-10-28T15:24:16.529Z,19.50
2022-10-28T15:26:08.152Z,22.10
2022-10-28T15:27:42.797Z,20.67
2022-10-28T15:29:14.906Z,19.30
2022-10-28T15:30:47.970Z,19.87
2022-10-28T15:32:30.192Z,20.13
2022-10-28T15:34:03.236Z,20.77
2022-10-28T15:35:40.614Z,21.70
2022-10-28T15:37:18.754Z,22.13
2022-10-28T15:39:02.072Z,20.27
2022-10-28T15:40:37.760Z,21.37
2022-10-28T15:42:32.851Z,20.23
2022-10-28T15:44:06.352Z,22.60
2022-10-28T15:45:42.521Z,22.50
2022-10-28T15:47:20.664Z,20.90
2022-10-28T15:48:54.272Z,22.47
2022-10-28T15:50:32.983Z,20.93
2022-10-28T15:52:22.110Z,21.37
2022-10-28T15:54:11.317Z,20.97
2022-10-28T15:56:02.845Z,20.93
2022-10-28T15:57:48.732Z,24.90
2022-10-28T15:59:24.309Z,19.90
2022-10-28T16:00:58.869Z,20.07
2022-10-28T16:03:00.405Z,22.70
2022-10-28T16:04:44.950Z,23.37
2022-10-28T16:06:28.515Z,21.47
2022-10-28T16:08:03.325Z,21.10
2022-10-28T16:09:43.447Z,23.20
2022-10-28T16:11:19.844Z,23.43
2022-10-28T16:12:53.160Z,21.60
2022-10-28T16:14:35.250Z,20.10
2022-10-28T16:16:10.911Z,23.43
2022-10-28T16:17:44.694Z,20.13
2022-10-28T16:19:26.863Z,25.30
2022-10-28T16:21:00.870Z,22.97
2022-10-28T16:22:36.672Z,22.97
2022-10-28T16:24:11.655Z,27.73
2022-10-28T16:25:46.282Z,26.37
2022-10-28T16:27:21.288Z,25.13
2022-10-28T16:28:54.493Z,28.50
2022-10-28T16:30:27.627Z,25.20
2022-10-28T16:32:01.139Z,26.83
2022-10-28T16:33:36.036Z,23.77
2022-10-28T16:35:15.153Z,24.67
2022-10-28T16:36:48.402Z,25.47
2022-10-28T16:38:21.549Z,25.33
2022-10-28T16:39:55.244Z,24.50
2022-10-28T16:41:29.839Z,22.40
2022-10-28T16:43:02.937Z,23.43
2022-10-28T16:44:35.992Z,25.97
2022-10-28T16:46:10.548Z,21.70
2022-10-28T16:47:43.596Z,20.63
2022-10-28T16:49:16.630Z,21.17
2022-10-28T16:50:51.845Z,24.43
2022-10-28T16:52:26.864Z,25.10
2022-10-28T16:54:00.830Z,21.10
2022-10-28T16:55:34.102Z,21.97
2022-10-28T16:57:08.740Z,22.20
2022-10-28T16:58:42.323Z,21.67
2022-10-28T17:00:15.756Z,25.70
2022-10-28T17:01:48.890Z,20.87
2022-10-28T17:03:22.038Z,23.00
2022-10-28T17:04:55.106Z,22.13
2022-10-28T17:06:28.151Z,23.63
2022-10-28T17:08:05.811Z,20.70
2022-10-28T17:09:42.095Z,22.83
2022-10-28T17:11:16.133Z,20.90
2022-10-28T17:12:50.780Z,22.63
2022-10-28T17:14:23.811Z,24.57
2022-10-28T17:15:56.865Z,22.67
2022-10-28T17:17:30.097Z,23.00
2022-10-28T17:19:03.102Z,21.33
2022-10-28T17:20:36.202Z,19.43
2022-10-28T17:22:10.621Z,20.13
2022-10-28T17:23:43.768Z,23.20
2022-10-28T17:25:16.996Z,21.77
2022-10-28T17:26:49.032Z,26.37
2022-10-28T17:28:23.794Z,22.50
2022-10-28T17:29:55.898Z,21.20
2022-10-28T17:31:29.006Z,26.23
2022-10-28T17:33:02.037Z,19.67
2022-10-28T17:34:35.136Z,21.50
2022-10-28T17:36:09.017Z,21.83
2022-10-28T17:37:42.040Z,19.17
2022-10-28T17:39:18.573Z,22.53
2022-10-28T17:40:55.640Z,21.13
2022-10-28T17:42:28.973Z,17.97
2022-10-28T17:44:03.630Z,21.00
2022-10-28T17:45:36.665Z,23.00
2022-10-28T17:47:09.823Z,26.77
2022-10-28T17:48:42.843Z,23.57
2022-10-28T17:50:15.916Z,24.37
2022-10-28T17:51:48.970Z,24.70
2022-10-28T17:53:22.857Z,21.83
2022-10-28T17:54:55.899Z,23.07
2022-10-28T17:56:29.128Z,23.90
2022-10-28T17:58:02.175Z,20.70
2022-10-28T17:59:36.578Z,22.67
2022-10-28T18:01:09.957Z,23.17
2022-10-28T18:02:43.104Z,22.33
2022-10-28T18:04:16.274Z,21.07
2022-10-28T18:05:49.310Z,22.77
2022-10-28T18:07:22.344Z,18.67
2022-10-28T18:08:55.383Z,19.90
2022-10-28T18:10:28.415Z,20.23
2022-10-28T18:12:02.568Z,19.43
2022-10-28T18:13:37.853Z,21.93
2022-10-28T18:15:12.469Z,22.10
2022-10-28T18:16:46.633Z,22.67
2022-10-28T18:18:19.662Z,22.50
2022-10-28T18:19:52.667Z,20.97
2022-10-28T18:21:25.124Z,20.03
2022-10-28T18:22:58.254Z,23.63
2022-10-28T18:24:31.400Z,24.47
2022-10-28T18:26:06.024Z,22.23
2022-10-28T18:27:39.122Z,22.40
2022-10-28T18:29:13.175Z,22.13
2022-10-28T18:30:47.576Z,20.23
2022-10-28T18:32:20.598Z,20.53
2022-10-28T18:33:53.639Z,20.63
2022-10-28T18:35:26.942Z,20.47
2022-10-28T18:37:00.090Z,22.70
2022-10-28T18:38:32.326Z,22.43
2022-10-28T18:40:06.344Z,23.10
2022-10-28T18:41:42.606Z,20.23
2022-10-28T18:43:16.110Z,22.00
2022-10-28T18:44:49.179Z,22.87
2022-10-28T18:46:23.843Z,20.80
2022-10-28T18:47:57.177Z,24.27
2022-10-28T18:49:31.081Z,22.93
2022-10-28T18:51:07.392Z,21.77
2022-10-28T18:52:40.428Z,25.93
2022-10-28T18:54:13.656Z,23.60
2022-10-28T18:55:46.711Z,22.70
2022-10-28T18:57:19.783Z,23.17
2022-10-28T18:58:52.844Z,21.87
2022-10-28T19:00:25.891Z,20.30
2022-10-28T19:02:00.414Z,20.77
2022-10-28T19:03:33.475Z,21.17
2022-10-28T19:05:07.000Z,23.07
2022-10-28T19:06:41.708Z,21.23
2022-10-28T19:08:14.116Z,20.43
2022-10-28T19:09:47.149Z,25.17
2022-10-28T19:11:20.976Z,21.90
2022-10-28T19:12:54.028Z,23.30
2022-10-28T19:14:27.055Z,19.93
2022-10-28T19:16:00.543Z,20.80
2022-10-28T19:17:35.065Z,22.83
2022-10-28T19:19:08.095Z,23.23
2022-10-28T19:20:41.133Z,23.10
2022-10-28T19:22:14.203Z,21.37
2022-10-28T19:23:47.260Z,20.57
2022-10-28T19:25:20.276Z,21.10
2022-10-28T19:26:53.315Z,23.07
2022-10-28T19:28:26.765Z,20.67
2022-10-28T19:30:00.740Z,18.87
2022-10-28T19:31:36.831Z,22.17
2022-10-28T19:33:11.228Z,23.20
2022-10-28T19:34:44.287Z,20.63
2022-10-28T19:36:19.229Z,20.53
2022-10-28T19:37:53.641Z,22.80
2022-10-28T19:39:26.722Z,20.03
2022-10-28T19:41:06.787Z,21.77
2022-10-28T19:42:40.139Z,22.17
2022-10-28T19:44:13.344Z,20.23
2022-10-28T19:45:46.378Z,21.30
2022-10-28T19:47:19.411Z,22.20
2022-10-28T19:48:56.005Z,20.23
2022-10-28T19:50:29.018Z,19.77
2022-10-28T19:52:02.091Z,23.50
2022-10-28T19:53:35.523Z,21.50
2022-10-28T19:55:13.671Z,19.67
2022-10-28T19:56:49.092Z,21.17
2022-10-28T19:58:22.192Z,20.47
2022-10-28T19:59:55.241Z,20.07
2022-10-28T20:01:30.558Z,23.07
2022-10-28T20:03:03.907Z,19.33
2022-10-28T20:04:39.311Z,21.03
2022-10-28T20:06:14.491Z,21.90
2022-10-28T20:07:47.506Z,20.73
2022-10-28T20:09:22.894Z,24.27
2022-10-28T20:11:00.716Z,19.47
2022-10-28T20:12:33.744Z,24.77
2022-10-28T20:14:09.441Z,23.03
2022-10-28T20:15:42.539Z,21.83
2022-10-28T20:17:16.389Z,21.00
2022-10-28T20:18:49.679Z,25.20
2022-10-28T20:20:24.122Z,23.47
2022-10-28T20:21:57.712Z,24.70
2022-10-28T20:23:32.217Z,26.43
2022-10-28T20:25:08.510Z,21.30
2022-10-28T20:26:41.589Z,20.53
2022-10-28T20:28:14.618Z,25.30
2022-10-28T20:29:47.657Z,24.13
2022-10-28T20:31:22.338Z,22.17
2022-10-28T20:32:55.935Z,19.83
2022-10-28T20:34:29.093Z,22.97
2022-10-28T20:36:03.666Z,20.70
2022-10-28T20:37:36.925Z,26.73
2022-10-28T20:39:14.000Z,24.33
2022-10-28T20:40:49.483Z,22.10
2022-10-28T20:42:22.504Z,22.90
2022-10-28T20:43:55.908Z,23.17
2022-10-28T20:45:29.074Z,21.97
2022-10-28T20:47:02.099Z,22.40
2022-10-28T20:48:35.154Z,23.73
2022-10-28T20:50:09.407Z,22.10
2022-10-28T20:51:44.000Z,24.00
2022-10-28T20:53:17.007Z,22.03
2022-10-28T20:54:50.024Z,22.13